sensor_id;sensor_type;location;lat;lon;timestamp;pressure;altitude;pressure_sealevel;temperature;humidity
68859;BME280;55864;49.238;8.092;2023-02-10T00:01:55;101316.06;;;0.77;64.35
68859;BME280;55864;49.238;8.092;2023-02-10T00:03:56;101319.66;;;0.70;64.42
68859;BME280;55864;49.238;8.092;2023-02-10T00:05:57;101314.56;;;0.67;65.03
68859;BME280;55864;49.238;8.092;2023-02-10T00:07:59;101308.41;;;0.73;64.89
68859;BME280;55864;49.238;8.092;2023-02-10T00:09:59;101315.34;;;0.71;64.49
68859;BME280;55864;49.238;8.092;2023-02-10T00:12:00;101318.13;;;0.63;65.18
68859;BME280;55864;49.238;8.092;2023-02-10T00:14:00;101316.50;;;0.58;65.32
68859;BME280;55864;49.238;8.092;2023-02-10T00:16:01;101313.84;;;0.61;65.41
68859;BME280;55864;49.238;8.092;2023-02-10T00:18:02;101324.13;;;0.64;65.59
68859;BME280;55864;49.238;8.092;2023-02-10T00:20:03;101324.09;;;0.65;65.61
68859;BME280;55864;49.238;8.092;2023-02-10T00:22:04;101330.94;;;0.68;65.51
68859;BME280;55864;49.238;8.092;2023-02-10T00:24:06;101333.38;;;0.74;65.02
68859;BME280;55864;49.238;8.092;2023-02-10T00:26:08;101329.97;;;0.73;65.54
68859;BME280;55864;49.238;8.092;2023-02-10T00:28:09;101336.25;;;0.62;65.38
68859;BME280;55864;49.238;8.092;2023-02-10T00:30:10;101333.88;;;0.51;65.49
68859;BME280;55864;49.238;8.092;2023-02-10T00:32:13;101333.88;;;0.51;65.43
68859;BME280;55864;49.238;8.092;2023-02-10T00:34:15;101333.22;;;0.42;65.85
68859;BME280;55864;49.238;8.092;2023-02-10T00:36:16;101333.38;;;0.34;66.12
68859;BME280;55864;49.238;8.092;2023-02-10T00:38:18;101337.78;;;0.31;66.52
68859;BME280;55864;49.238;8.092;2023-02-10T00:40:22;101328.22;;;0.36;66.03
68859;BME280;55864;49.238;8.092;2023-02-10T00:42:22;101331.75;;;0.32;66.34
68859;BME280;55864;49.238;8.092;2023-02-10T00:44:23;101334.41;;;0.27;66.16
68859;BME280;55864;49.238;8.092;2023-02-10T00:46:24;101339.63;;;0.26;66.25
68859;BME280;55864;49.238;8.092;2023-02-10T00:48:24;101337.78;;;0.32;66.34
68859;BME280;55864;49.238;8.092;2023-02-10T00:50:25;101340.41;;;0.29;66.19
68859;BME280;55864;49.238;8.092;2023-02-10T00:52:25;101345.66;;;0.25;66.37
68859;BME280;55864;49.238;8.092;2023-02-10T00:54:26;101344.53;;;0.38;66.54
68859;BME280;55864;49.238;8.092;2023-02-10T00:56:28;101359.03;;;0.45;66.08
68859;BME280;55864;49.238;8.092;2023-02-10T00:58:29;101376.97;;;0.52;66.03
68859;BME280;55864;49.238;8.092;2023-02-10T01:00:29;101372.84;;;0.42;66.03
68859;BME280;55864;49.238;8.092;2023-02-10T01:02:30;101372.03;;;0.40;65.99
68859;BME280;55864;49.238;8.092;2023-02-10T01:04:30;101371.88;;;0.48;65.94
68859;BME280;55864;49.238;8.092;2023-02-10T01:06:31;101369.44;;;0.40;65.78
68859;BME280;55864;49.238;8.092;2023-02-10T01:08:32;101364.56;;;0.28;66.38
68859;BME280;55864;49.238;8.092;2023-02-10T01:10:33;101369.88;;;0.19;66.45
68859;BME280;55864;49.238;8.092;2023-02-10T01:12:35;101368.97;;;0.22;66.25
68859;BME280;55864;49.238;8.092;2023-02-10T01:14:36;101382.50;;;0.34;66.17
68859;BME280;55864;49.238;8.092;2023-02-10T01:16:36;101373.22;;;0.26;66.03
68859;BME280;55864;49.238;8.092;2023-02-10T01:18:37;101374.84;;;0.30;66.23
68859;BME280;55864;49.238;8.092;2023-02-10T01:20:38;101375.72;;;0.30;66.24
68859;BME280;55864;49.238;8.092;2023-02-10T01:22:39;101383.28;;;0.39;66.04
68859;BME280;55864;49.238;8.092;2023-02-10T01:24:40;101379.66;;;0.46;65.80
68859;BME280;55864;49.238;8.092;2023-02-10T01:26:40;101379.78;;;0.40;65.67
68859;BME280;55864;49.238;8.092;2023-02-10T01:28:43;101375.41;;;0.45;65.95
68859;BME280;55864;49.238;8.092;2023-02-10T01:30:44;101382.38;;;0.40;65.81
68859;BME280;55864;49.238;8.092;2023-02-10T01:32:45;101382.31;;;0.43;66.06
68859;BME280;55864;49.238;8.092;2023-02-10T01:34:46;101388.38;;;0.42;65.44
68859;BME280;55864;49.238;8.092;2023-02-10T01:36:46;101398.06;;;0.31;65.53
68859;BME280;55864;49.238;8.092;2023-02-10T01:38:47;101394.53;;;0.35;65.81
68859;BME280;55864;49.238;8.092;2023-02-10T01:40:48;101387.66;;;0.34;65.70
68859;BME280;55864;49.238;8.092;2023-02-10T01:42:48;101389.44;;;0.32;65.75
68859;BME280;55864;49.238;8.092;2023-02-10T01:45:15;101391.41;;;0.20;65.80
68859;BME280;55864;49.238;8.092;2023-02-10T01:47:16;101384.84;;;0.04;66.34
68859;BME280;55864;49.238;8.092;2023-02-10T01:49:18;101386.69;;;-0.03;66.44
68859;BME280;55864;49.238;8.092;2023-02-10T01:51:22;101385.97;;;-0.11;67.03
68859;BME280;55864;49.238;8.092;2023-02-10T01:53:25;101386.94;;;-0.17;66.80
68859;BME280;55864;49.238;8.092;2023-02-10T01:55:28;101378.34;;;-0.19;67.08
68859;BME280;55864;49.238;8.092;2023-02-10T01:57:31;101383.28;;;-0.05;67.11
68859;BME280;55864;49.238;8.092;2023-02-10T01:59:34;101385.00;;;-0.04;67.35
68859;BME280;55864;49.238;8.092;2023-02-10T02:01:39;101382.34;;;-0.01;66.83
68859;BME280;55864;49.238;8.092;2023-02-10T02:03:40;101382.41;;;-0.04;67.01
68859;BME280;55864;49.238;8.092;2023-02-10T02:05:41;101379.63;;;0.07;66.58
68859;BME280;55864;49.238;8.092;2023-02-10T02:07:42;101381.19;;;0.15;66.53
68859;BME280;55864;49.238;8.092;2023-02-10T02:09:45;101374.22;;;0.19;66.08
68859;BME280;55864;49.238;8.092;2023-02-10T02:11:52;101374.09;;;0.23;66.17
68859;BME280;55864;49.238;8.092;2023-02-10T02:14:17;101375.88;;;0.21;66.24
68859;BME280;55864;49.238;8.092;2023-02-10T02:16:28;101371.47;;;0.26;65.94
68859;BME280;55864;49.238;8.092;2023-02-10T02:18:39;101376.56;;;0.29;65.64
68859;BME280;55864;49.238;8.092;2023-02-10T02:25:53;101378.34;;;0.27;65.62
68859;BME280;55864;49.238;8.092;2023-02-10T02:28:18;101370.47;;;0.33;65.95
68859;BME280;55864;49.238;8.092;2023-02-10T02:30:50;101368.63;;;0.38;65.18
68859;BME280;55864;49.238;8.092;2023-02-10T02:32:57;101385.06;;;0.36;65.58
68859;BME280;55864;49.238;8.092;2023-02-10T02:35:05;101379.03;;;0.35;65.09
68859;BME280;55864;49.238;8.092;2023-02-10T02:37:11;101374.81;;;0.31;65.72
68859;BME280;55864;49.238;8.092;2023-02-10T02:39:12;101368.81;;;0.29;65.73
68859;BME280;55864;49.238;8.092;2023-02-10T02:41:22;101382.63;;;0.28;65.64
68859;BME280;55864;49.238;8.092;2023-02-10T02:43:23;101374.91;;;0.27;66.02
68859;BME280;55864;49.238;8.092;2023-02-10T02:45:29;101388.94;;;0.15;66.11
68859;BME280;55864;49.238;8.092;2023-02-10T02:47:56;101381.91;;;0.22;65.81
68859;BME280;55864;49.238;8.092;2023-02-10T02:50:07;101375.03;;;0.19;66.20
68859;BME280;55864;49.238;8.092;2023-02-10T02:52:12;101382.88;;;0.16;66.33
68859;BME280;55864;49.238;8.092;2023-02-10T02:54:20;101390.53;;;0.21;66.01
68859;BME280;55864;49.238;8.092;2023-02-10T02:56:30;101391.44;;;0.18;66.31
68859;BME280;55864;49.238;8.092;2023-02-10T02:58:42;101396.53;;;0.21;65.98
68859;BME280;55864;49.238;8.092;2023-02-10T03:00:45;101396.69;;;0.14;66.08
68859;BME280;55864;49.238;8.092;2023-02-10T03:02:47;101403.66;;;0.10;65.86
68859;BME280;55864;49.238;8.092;2023-02-10T03:04:49;101406.16;;;0.15;66.09
68859;BME280;55864;49.238;8.092;2023-02-10T03:06:50;101405.38;;;0.11;66.54
68859;BME280;55864;49.238;8.092;2023-02-10T03:08:50;101413.25;;;0.02;66.08
68859;BME280;55864;49.238;8.092;2023-02-10T03:10:51;101409.19;;;-0.10;66.79
68859;BME280;55864;49.238;8.092;2023-02-10T03:12:52;101413.44;;;-0.07;67.34
68859;BME280;55864;49.238;8.092;2023-02-10T03:14:52;101411.81;;;-0.13;67.05
68859;BME280;55864;49.238;8.092;2023-02-10T03:16:53;101412.66;;;-0.11;66.89
68859;BME280;55864;49.238;8.092;2023-02-10T03:18:53;101413.41;;;-0.06;67.19
68859;BME280;55864;49.238;8.092;2023-02-10T03:20:55;101416.88;;;-0.07;66.90
68859;BME280;55864;49.238;8.092;2023-02-10T03:22:56;101417.75;;;-0.08;66.92
68859;BME280;55864;49.238;8.092;2023-02-10T03:24:56;101413.47;;;-0.09;66.86
68859;BME280;55864;49.238;8.092;2023-02-10T03:26:57;101417.78;;;-0.09;66.62
68859;BME280;55864;49.238;8.092;2023-02-10T03:28:57;101421.31;;;-0.15;67.08
68859;BME280;55864;49.238;8.092;2023-02-10T03:31:01;101419.81;;;-0.25;67.42
68859;BME280;55864;49.238;8.092;2023-02-10T03:33:02;101419.91;;;-0.31;67.35
68859;BME280;55864;49.238;8.092;2023-02-10T03:35:03;101418.22;;;-0.33;67.04
68859;BME280;55864;49.238;8.092;2023-02-10T03:37:05;101419.13;;;-0.37;67.40
68859;BME280;55864;49.238;8.092;2023-02-10T03:39:06;101419.25;;;-0.42;67.39
68859;BME280;55864;49.238;8.092;2023-02-10T03:41:06;101423.47;;;-0.39;67.27
68859;BME280;55864;49.238;8.092;2023-02-10T03:43:07;101420.94;;;-0.41;67.14
68859;BME280;55864;49.238;8.092;2023-02-10T03:45:08;101418.13;;;-0.27;67.24
68859;BME280;55864;49.238;8.092;2023-02-10T03:47:09;101422.22;;;-0.16;67.12
68859;BME280;55864;49.238;8.092;2023-02-10T03:49:09;101420.50;;;-0.17;66.97
68859;BME280;55864;49.238;8.092;2023-02-10T03:51:10;101425.66;;;-0.17;67.15
68859;BME280;55864;49.238;8.092;2023-02-10T03:53:12;101424.09;;;-0.25;67.27
68859;BME280;55864;49.238;8.092;2023-02-10T03:55:13;101430.97;;;-0.24;67.00
68859;BME280;55864;49.238;8.092;2023-02-10T03:57:13;101440.34;;;-0.20;67.21
68859;BME280;55864;49.238;8.092;2023-02-10T03:59:14;101438.81;;;-0.30;67.24
68859;BME280;55864;49.238;8.092;2023-02-10T04:01:16;101441.44;;;-0.33;67.37
68859;BME280;55864;49.238;8.092;2023-02-10T04:03:17;101439.63;;;-0.28;67.60
68859;BME280;55864;49.238;8.092;2023-02-10T04:05:18;101446.44;;;-0.24;67.60
68859;BME280;55864;49.238;8.092;2023-02-10T04:07:18;101444.59;;;-0.16;67.45
68859;BME280;55864;49.238;8.092;2023-02-10T04:09:20;101446.28;;;-0.14;66.66
68859;BME280;55864;49.238;8.092;2023-02-10T04:11:21;101455.66;;;-0.08;66.55
68859;BME280;55864;49.238;8.092;2023-02-10T04:13:21;101448.88;;;-0.15;66.86
68859;BME280;55864;49.238;8.092;2023-02-10T04:15:22;101449.97;;;-0.27;67.07
68859;BME280;55864;49.238;8.092;2023-02-10T04:17:23;101448.25;;;-0.28;66.93
68859;BME280;55864;49.238;8.092;2023-02-10T04:19:23;101448.06;;;-0.19;67.16
68859;BME280;55864;49.238;8.092;2023-02-10T04:21:24;101452.41;;;-0.21;66.85
68859;BME280;55864;49.238;8.092;2023-02-10T04:23:24;101455.13;;;-0.28;67.32
68859;BME280;55864;49.238;8.092;2023-02-10T04:25:26;101453.28;;;-0.20;67.03
68859;BME280;55864;49.238;8.092;2023-02-10T04:27:27;101449.72;;;-0.15;66.74
68859;BME280;55864;49.238;8.092;2023-02-10T04:29:27;101449.66;;;-0.10;66.65
68859;BME280;55864;49.238;8.092;2023-02-10T04:31:28;101445.31;;;-0.08;66.33
68859;BME280;55864;49.238;8.092;2023-02-10T04:33:29;101441.84;;;-0.07;66.62
68859;BME280;55864;49.238;8.092;2023-02-10T04:35:29;101450.41;;;-0.05;66.79
68859;BME280;55864;49.238;8.092;2023-02-10T04:37:30;101439.19;;;-0.03;66.30
68859;BME280;55864;49.238;8.092;2023-02-10T04:39:30;101442.63;;;-0.04;66.30
68859;BME280;55864;49.238;8.092;2023-02-10T04:41:32;101446.16;;;-0.08;66.72
68859;BME280;55864;49.238;8.092;2023-02-10T04:43:33;101451.34;;;-0.09;66.33
68859;BME280;55864;49.238;8.092;2023-02-10T04:45:34;101443.59;;;-0.09;66.56
68859;BME280;55864;49.238;8.092;2023-02-10T04:47:35;101451.31;;;-0.08;66.59
68859;BME280;55864;49.238;8.092;2023-02-10T04:49:35;101454.88;;;-0.12;66.55
68859;BME280;55864;49.238;8.092;2023-02-10T04:51:36;101453.13;;;-0.13;66.54
68859;BME280;55864;49.238;8.092;2023-02-10T04:53:36;101454.00;;;-0.12;66.58
68859;BME280;55864;49.238;8.092;2023-02-10T04:55:37;101462.59;;;-0.13;66.96
68859;BME280;55864;49.238;8.092;2023-02-10T04:57:39;101460.94;;;-0.16;67.11
68859;BME280;55864;49.238;8.092;2023-02-10T04:59:39;101465.19;;;-0.12;65.96
68859;BME280;55864;49.238;8.092;2023-02-10T05:01:40;101466.09;;;-0.14;66.44
68859;BME280;55864;49.238;8.092;2023-02-10T05:03:40;101470.41;;;-0.16;66.35
68859;BME280;55864;49.238;8.092;2023-02-10T05:05:41;101472.94;;;-0.13;66.14
68859;BME280;55864;49.238;8.092;2023-02-10T05:07:42;101467.78;;;-0.13;66.10
68859;BME280;55864;49.238;8.092;2023-02-10T05:09:42;101473.16;;;-0.25;66.56
68859;BME280;55864;49.238;8.092;2023-02-10T05:11:43;101477.66;;;-0.36;66.34
68859;BME280;55864;49.238;8.092;2023-02-10T05:13:45;101475.06;;;-0.36;66.70
68859;BME280;55864;49.238;8.092;2023-02-10T05:15:46;101471.63;;;-0.37;67.05
68859;BME280;55864;49.238;8.092;2023-02-10T05:17:46;101483.66;;;-0.34;67.13
68859;BME280;55864;49.238;8.092;2023-02-10T05:19:47;101487.09;;;-0.35;66.96
68859;BME280;55864;49.238;8.092;2023-02-10T05:21:48;101493.84;;;-0.28;66.95
68859;BME280;55864;49.238;8.092;2023-02-10T05:23:48;101491.47;;;-0.40;66.92
68859;BME280;55864;49.238;8.092;2023-02-10T05:25:49;101496.84;;;-0.54;66.99
68859;BME280;55864;49.238;8.092;2023-02-10T05:27:49;101503.69;;;-0.53;67.41
68859;BME280;55864;49.238;8.092;2023-02-10T05:29:51;101500.25;;;-0.52;67.37
68859;BME280;55864;49.238;8.092;2023-02-10T05:31:53;101507.88;;;-0.44;67.36
68859;BME280;55864;49.238;8.092;2023-02-10T05:33:54;101511.44;;;-0.53;67.46
68859;BME280;55864;49.238;8.092;2023-02-10T05:35:54;101509.63;;;-0.46;67.14
68859;BME280;55864;49.238;8.092;2023-02-10T05:37:55;101514.78;;;-0.46;67.09
68859;BME280;55864;49.238;8.092;2023-02-10T05:39:55;101506.06;;;-0.39;67.06
68859;BME280;55864;49.238;8.092;2023-02-10T05:41:58;101503.63;;;-0.48;66.94
68859;BME280;55864;49.238;8.092;2023-02-10T05:43:58;101505.63;;;-0.65;67.21
68859;BME280;55864;49.238;8.092;2023-02-10T05:46:00;101507.25;;;-0.60;67.37
68859;BME280;55864;49.238;8.092;2023-02-10T05:48:01;101511.53;;;-0.60;67.81
68859;BME280;55864;49.238;8.092;2023-02-10T05:50:01;101512.28;;;-0.52;67.30
68859;BME280;55864;49.238;8.092;2023-02-10T05:52:02;101516.50;;;-0.45;67.21
68859;BME280;55864;49.238;8.092;2023-02-10T05:54:03;101514.03;;;-0.51;67.37
68859;BME280;55864;49.238;8.092;2023-02-10T05:56:04;101513.97;;;-0.48;67.20
68859;BME280;55864;49.238;8.092;2023-02-10T05:58:04;101515.63;;;-0.44;66.93
68859;BME280;55864;49.238;8.092;2023-02-10T06:00:07;101518.13;;;-0.40;66.94
68859;BME280;55864;49.238;8.092;2023-02-10T06:02:14;101522.41;;;-0.39;67.16
68859;BME280;55864;49.238;8.092;2023-02-10T06:04:15;101521.53;;;-0.36;66.47
68859;BME280;55864;49.238;8.092;2023-02-10T06:06:16;101522.50;;;-0.45;66.58
68859;BME280;55864;49.238;8.092;2023-02-10T06:08:17;101524.31;;;-0.50;66.47
68859;BME280;55864;49.238;8.092;2023-02-10T06:10:18;101529.50;;;-0.53;66.90
68859;BME280;55864;49.238;8.092;2023-02-10T06:12:18;101525.19;;;-0.49;66.76
68859;BME280;55864;49.238;8.092;2023-02-10T06:14:19;101529.63;;;-0.60;67.20
68859;BME280;55864;49.238;8.092;2023-02-10T06:16:20;101531.31;;;-0.58;67.43
68859;BME280;55864;49.238;8.092;2023-02-10T06:18:22;101528.88;;;-0.68;67.27
68859;BME280;55864;49.238;8.092;2023-02-10T06:20:22;101531.50;;;-0.71;67.49
68859;BME280;55864;49.238;8.092;2023-02-10T06:22:23;101535.72;;;-0.66;67.42
68859;BME280;55864;49.238;8.092;2023-02-10T06:24:24;101542.50;;;-0.57;67.64
68859;BME280;55864;49.238;8.092;2023-02-10T06:26:25;101539.88;;;-0.56;67.37
68859;BME280;55864;49.238;8.092;2023-02-10T06:28:27;101545.81;;;-0.51;66.90
68859;BME280;55864;49.238;8.092;2023-02-10T06:30:27;101549.41;;;-0.59;67.32
68859;BME280;55864;49.238;8.092;2023-02-10T06:32:28;101542.56;;;-0.63;67.44
68859;BME280;55864;49.238;8.092;2023-02-10T06:34:30;101554.47;;;-0.53;67.23
68859;BME280;55864;49.238;8.092;2023-02-10T06:36:30;101556.16;;;-0.49;66.96
68859;BME280;55864;49.238;8.092;2023-02-10T06:38:31;101557.91;;;-0.51;66.98
68859;BME280;55864;49.238;8.092;2023-02-10T06:40:35;101544.97;;;-0.53;67.24
68859;BME280;55864;49.238;8.092;2023-02-10T06:42:38;101549.22;;;-0.47;67.07
68859;BME280;55864;49.238;8.092;2023-02-10T06:44:39;101550.06;;;-0.47;67.16
68859;BME280;55864;49.238;8.092;2023-02-10T06:46:39;101554.34;;;-0.44;66.83
68859;BME280;55864;49.238;8.092;2023-02-10T06:48:40;101555.19;;;-0.42;66.63
68859;BME280;55864;49.238;8.092;2023-02-10T06:50:42;101559.63;;;-0.52;67.18
68859;BME280;55864;49.238;8.092;2023-02-10T06:52:42;101560.44;;;-0.50;67.03
68859;BME280;55864;49.238;8.092;2023-02-10T06:54:43;101555.25;;;-0.48;66.98
68859;BME280;55864;49.238;8.092;2023-02-10T06:56:44;101561.31;;;-0.49;66.91
68859;BME280;55864;49.238;8.092;2023-02-10T06:58:44;101558.75;;;-0.52;66.88
68859;BME280;55864;49.238;8.092;2023-02-10T07:00:45;101563.88;;;-0.49;66.78
68859;BME280;55864;49.238;8.092;2023-02-10T07:02:46;101567.34;;;-0.52;66.71
68859;BME280;55864;49.238;8.092;2023-02-10T07:04:46;101558.84;;;-0.57;67.13
68859;BME280;55864;49.238;8.092;2023-02-10T07:06:48;101560.50;;;-0.54;66.87
68859;BME280;55864;49.238;8.092;2023-02-10T07:08:48;101567.31;;;-0.50;66.91
68859;BME280;55864;49.238;8.092;2023-02-10T07:10:49;101566.47;;;-0.49;66.79
68859;BME280;55864;49.238;8.092;2023-02-10T07:12:50;101557.84;;;-0.48;66.71
68859;BME280;55864;49.238;8.092;2023-02-10T07:14:50;101564.72;;;-0.49;66.84
68859;BME280;55864;49.238;8.092;2023-02-10T07:16:51;101557.88;;;-0.53;67.26
68859;BME280;55864;49.238;8.092;2023-02-10T07:18:51;101563.88;;;-0.51;67.21
68859;BME280;55864;49.238;8.092;2023-02-10T07:20:52;101563.88;;;-0.49;67.34
68859;BME280;55864;49.238;8.092;2023-02-10T07:22:54;101567.31;;;-0.50;66.85
68859;BME280;55864;49.238;8.092;2023-02-10T07:24:54;101567.34;;;-0.52;67.07
68859;BME280;55864;49.238;8.092;2023-02-10T07:26:55;101563.94;;;-0.54;67.33
68859;BME280;55864;49.238;8.092;2023-02-10T07:28:55;101574.25;;;-0.54;67.23
68859;BME280;55864;49.238;8.092;2023-02-10T07:30:56;101556.25;;;-0.58;67.17
68859;BME280;55864;49.238;8.092;2023-02-10T07:32:56;101557.97;;;-0.57;67.63
68859;BME280;55864;49.238;8.092;2023-02-10T07:34:57;101559.69;;;-0.58;67.52
68859;BME280;55864;49.238;8.092;2023-02-10T07:36:57;101558.84;;;-0.57;67.82
68859;BME280;55864;49.238;8.092;2023-02-10T07:38:59;101557.97;;;-0.57;67.80
68859;BME280;55864;49.238;8.092;2023-02-10T07:41:00;101559.66;;;-0.56;67.76
68859;BME280;55864;49.238;8.092;2023-02-10T07:43:00;101559.59;;;-0.50;67.90
68859;BME280;55864;49.238;8.092;2023-02-10T07:45:27;101563.00;;;-0.48;68.04
68859;BME280;55864;49.238;8.092;2023-02-10T07:47:27;101568.16;;;-0.48;67.81
68859;BME280;55864;49.238;8.092;2023-02-10T07:49:28;101565.53;;;-0.45;68.09
68859;BME280;55864;49.238;8.092;2023-02-10T07:51:29;101562.03;;;-0.41;67.87
68859;BME280;55864;49.238;8.092;2023-02-10T07:53:29;101562.81;;;-0.35;68.04
68859;BME280;55864;49.238;8.092;2023-02-10T07:55:31;101567.94;;;-0.33;68.21
68859;BME280;55864;49.238;8.092;2023-02-10T07:57:32;101564.50;;;-0.32;68.00
68859;BME280;55864;49.238;8.092;2023-02-10T07:59:32;101562.72;;;-0.29;68.80
68859;BME280;55864;49.238;8.092;2023-02-10T08:01:33;101563.47;;;-0.22;68.53
68859;BME280;55864;49.238;8.092;2023-02-10T08:03:33;101556.53;;;-0.19;69.01
68859;BME280;55864;49.238;8.092;2023-02-10T08:05:35;101566.81;;;-0.16;68.83
68859;BME280;55864;49.238;8.092;2023-02-10T08:07:36;101550.34;;;-0.09;69.36
68859;BME280;55864;49.238;8.092;2023-02-10T08:09:37;101545.06;;;-0.01;68.94
68859;BME280;55864;49.238;8.092;2023-02-10T08:11:39;101546.69;;;0.05;69.14
68859;BME280;55864;49.238;8.092;2023-02-10T08:13:40;101548.31;;;0.10;68.97
68859;BME280;55864;49.238;8.092;2023-02-10T08:15:40;101547.31;;;0.19;69.50
68859;BME280;55864;49.238;8.092;2023-02-10T08:17:41;101545.44;;;0.28;68.91
68859;BME280;55864;49.238;8.092;2023-02-10T08:19:41;101546.19;;;0.33;68.69
68859;BME280;55864;49.238;8.092;2023-02-10T08:21:42;101546.97;;;0.38;68.97
68859;BME280;55864;49.238;8.092;2023-02-10T08:23:42;101558.13;;;0.40;69.15
68859;BME280;55864;49.238;8.092;2023-02-10T08:25:43;101548.56;;;0.44;69.25
68859;BME280;55864;49.238;8.092;2023-02-10T08:27:45;101550.25;;;0.46;68.95
68859;BME280;55864;49.238;8.092;2023-02-10T08:29:46;101555.38;;;0.49;69.29
68859;BME280;55864;49.238;8.092;2023-02-10T08:31:48;101554.44;;;0.53;69.22
68859;BME280;55864;49.238;8.092;2023-02-10T08:33:49;101556.91;;;0.59;69.24
68859;BME280;55864;49.238;8.092;2023-02-10T08:35:49;101544.78;;;0.64;70.39
68859;BME280;55864;49.238;8.092;2023-02-10T08:37:50;101550.63;;;0.72;69.79
68859;BME280;55864;49.238;8.092;2023-02-10T08:39:51;101553.03;;;0.83;70.48
68859;BME280;55864;49.238;8.092;2023-02-10T08:41:51;101556.28;;;0.92;69.94
68859;BME280;55864;49.238;8.092;2023-02-10T08:43:53;101553.47;;;1.03;69.95
68859;BME280;55864;49.238;8.092;2023-02-10T08:45:54;101556.72;;;1.13;69.53
68859;BME280;55864;49.238;8.092;2023-02-10T08:47:55;101559.13;;;1.22;69.66
68859;BME280;55864;49.238;8.092;2023-02-10T08:49:56;101554.63;;;1.30;69.10
68859;BME280;55864;49.238;8.092;2023-02-10T08:51:57;101564.00;;;1.35;68.73
68859;BME280;55864;49.238;8.092;2023-02-10T08:53:59;101564.78;;;1.39;68.46
68859;BME280;55864;49.238;8.092;2023-02-10T08:56:02;101563.84;;;1.43;68.77
68859;BME280;55864;49.238;8.092;2023-02-10T08:58:03;101567.16;;;1.48;68.00
68859;BME280;55864;49.238;8.092;2023-02-10T09:00:06;101565.31;;;1.54;68.42
68859;BME280;55864;49.238;8.092;2023-02-10T09:02:09;101566.03;;;1.61;66.63
68859;BME280;55864;49.238;8.092;2023-02-10T09:04:10;101563.25;;;1.70;66.32
68859;BME280;55864;49.238;8.092;2023-02-10T09:06:14;101565.66;;;1.77;65.14
68859;BME280;55864;49.238;8.092;2023-02-10T09:08:15;101561.97;;;1.86;64.91
68859;BME280;55864;49.238;8.092;2023-02-10T09:10:16;101566.94;;;1.95;64.98
68859;BME280;55864;49.238;8.092;2023-02-10T09:12:17;101568.56;;;1.99;64.42
68859;BME280;55864;49.238;8.092;2023-02-10T09:14:17;101570.19;;;2.03;64.71
68859;BME280;55864;49.238;8.092;2023-02-10T09:16:19;101574.47;;;2.06;65.08
68859;BME280;55864;49.238;8.092;2023-02-10T09:18:20;101570.06;;;2.09;64.10
68859;BME280;55864;49.238;8.092;2023-02-10T09:20:20;101570.78;;;2.14;63.76
68859;BME280;55864;49.238;8.092;2023-02-10T09:22:21;101582.69;;;2.23;64.25
68859;BME280;55864;49.238;8.092;2023-02-10T09:24:22;101579.03;;;2.30;63.78
68859;BME280;55864;49.238;8.092;2023-02-10T09:26:23;101581.53;;;2.34;64.42
68859;BME280;55864;49.238;8.092;2023-02-10T09:28:24;101586.56;;;2.40;64.94
68859;BME280;55864;49.238;8.092;2023-02-10T09:30:26;101593.34;;;2.46;66.30
68859;BME280;55864;49.238;8.092;2023-02-10T09:32:29;101591.53;;;2.49;66.93
68859;BME280;55864;49.238;8.092;2023-02-10T09:34:30;101597.53;;;2.51;67.62
68859;BME280;55864;49.238;8.092;2023-02-10T09:36:30;101604.28;;;2.57;67.84
68859;BME280;55864;49.238;8.092;2023-02-10T09:38:31;101604.16;;;2.63;68.23
68859;BME280;55864;49.238;8.092;2023-02-10T09:40:35;101604.91;;;2.66;68.53
68859;BME280;55864;49.238;8.092;2023-02-10T09:42:54;101611.63;;;2.73;68.43
68859;BME280;55864;49.238;8.092;2023-02-10T09:45:02;101611.53;;;2.76;68.34
68859;BME280;55864;49.238;8.092;2023-02-10T09:47:19;101606.28;;;2.79;68.23
68859;BME280;55864;49.238;8.092;2023-02-10T09:49:46;101609.59;;;2.84;68.44
68859;BME280;55864;49.238;8.092;2023-02-10T09:51:55;101605.13;;;2.91;66.96
68859;BME280;55864;49.238;8.092;2023-02-10T09:53:58;101604.91;;;2.99;65.92
68859;BME280;55864;49.238;8.092;2023-02-10T09:56:01;101608.09;;;3.08;66.07
68859;BME280;55864;49.238;8.092;2023-02-10T09:58:05;101606.16;;;3.15;63.64
68859;BME280;55864;49.238;8.092;2023-02-10T10:00:20;101602.53;;;3.22;63.83
68859;BME280;55864;49.238;8.092;2023-02-10T10:02:28;101605.78;;;3.28;64.21
68859;BME280;55864;49.238;8.092;2023-02-10T10:04:32;101606.47;;;3.35;63.09
68859;BME280;55864;49.238;8.092;2023-02-10T10:06:34;101613.25;;;3.39;63.29
68859;BME280;55864;49.238;8.092;2023-02-10T10:08:44;101609.59;;;3.46;62.33
68859;BME280;55864;49.238;8.092;2023-02-10T10:10:48;101599.03;;;3.52;62.28
68859;BME280;55864;49.238;8.092;2023-02-10T10:12:49;101609.31;;;3.55;61.60
68859;BME280;55864;49.238;8.092;2023-02-10T10:14:50;101599.50;;;3.64;62.16
68859;BME280;55864;49.238;8.092;2023-02-10T10:17:03;101604.59;;;3.67;61.81
68859;BME280;55864;49.238;8.092;2023-02-10T10:19:13;101602.75;;;3.71;60.22
68859;BME280;55864;49.238;8.092;2023-02-10T10:21:23;101600.13;;;3.72;61.15
68859;BME280;55864;49.238;8.092;2023-02-10T10:23:36;101605.19;;;3.77;60.29
68859;BME280;55864;49.238;8.092;2023-02-10T10:26:01;101611.22;;;3.77;59.83
68859;BME280;55864;49.238;8.092;2023-02-10T10:28:08;101608.59;;;3.79;59.72
68859;BME280;55864;49.238;8.092;2023-02-10T10:30:18;101613.72;;;3.80;60.47
68859;BME280;55864;49.238;8.092;2023-02-10T10:32:28;101608.41;;;3.85;60.01
68859;BME280;55864;49.238;8.092;2023-02-10T10:34:36;101610.81;;;3.91;59.90
68859;BME280;55864;49.238;8.092;2023-02-10T10:36:44;101621.06;;;3.96;59.89
68859;BME280;55864;49.238;8.092;2023-02-10T10:38:48;101621.06;;;3.96;59.40
68859;BME280;55864;49.238;8.092;2023-02-10T10:40:52;101621.91;;;3.96;59.23
68859;BME280;55864;49.238;8.092;2023-02-10T10:42:57;101614.88;;;4.00;59.06
68859;BME280;55864;49.238;8.092;2023-02-10T10:45:02;101621.63;;;4.05;59.53
68859;BME280;55864;49.238;8.092;2023-02-10T10:47:06;101609.34;;;4.10;58.43
68859;BME280;55864;49.238;8.092;2023-02-10T10:49:11;101610.09;;;4.14;58.96
68859;BME280;55864;49.238;8.092;2023-02-10T10:51:12;101607.38;;;4.17;58.83